Milano, Italia

05:07 PM CEST del 23 Ottobre 2014 (GMT +0200)
somma lombardo - maddalena | Change Station
CLOSE
Current Station
Stazione meteo personale
Location: Lombardia, LOMBARDIA
Altitudine: 702 ft
Stazioni meteo nelle vicinanze
Avvisi attivi: Wind

Alt. 702 ft 45.66 °N, 8.68 °E | Updated 1 minute ago

Clear
Sereno
68.5 °F
Sembra 68.5 °F
N
10.0
Vento Variabile Vento da NE
Gusts 10.0 mph

Oggi
Massima -- | Minima -- °F
--% Possibilità di precip.
Ieri
Massima -- | Minima -- °F
Precip. -- in
7:51 AM 6:26 PM
Luna calante, 0% visible
Pressione 29.83 in
Visibilità -9999.0 miglia
Nuvole
Punto di rugiada 32 °F
Umidità 26%
Piovosità 0.00 in
Spessore del manto nevoso Non disponibile.
Raggi UV Non disponibile.
Polline Non disponibile.
Qualità dell'aria Non disponibile.
Flu Activity Non disponibile.
METAR LIMC 231450Z 02019G31KT 35P?850 CAVOK 20/M02 Q1010 NOSIG

More Conditions Fewer Conditions

Pressione 29.83 in
Visibilità -9999.0 miglia
Nuvole
Punto di rugiada 32 °F
Umidità 26%
Piovosità 0.00 in
Spessore del manto nevoso Non disponibile.
Raggi UV Non disponibile.
Polline Non disponibile.
Qualità dell'aria Non disponibile.
Flu Activity Non disponibile.
METAR LIMC 231450Z 02019G31KT 35P?850 CAVOK 20/M02 Q1010 NOSIG

More Conditions Fewer Conditions

10-Day Weather Forecast

Almanac

Astronomia

Oct. 23, 2014 Alba Tramonto
Ora attuale 07:51 CEST 18:26 CEST
Crepuscolo civile 07:21 CEST 18:56 CEST
Crepuscolo nautico 06:46 CEST 19:31 CEST
Crepuscolo astronomico 06:12 CEST 20:05 CEST
Luna 07:13 CEST 18:18 CEST
Estensione della luce visibile 11h 34m
Lunghezza del giorno
10h 34m
Tomorrow will be 3m 0s shorter.
Luna calante, 0% of the Moon is Illuminated
Oggi
Luna calante
Ott 23
Nuovo
Ott 30
Primo quarto
Nov 6
Luna piena
Nov 14
Ultimo quarto

Gli estremi di oggi

Massime Regione Minime Regione

Community

WunderPhotos

Upload Photos

1,764,277 foto caricate!

Nearby

Qualità dell'aria

Not available.

Profondità neve

Not available.

Attività sismica

Città  Distanza Mag. Data & Ora
Non sono state riportate attività sismiche nelle vicinanze.
Minimo Magnitudo Mostrato è 2.5.

Temperature delle acque costiere

Località Temperatura
Nessun dato dalle stazioni

Stazioni meteo nelle vicinanze